createdAt,value
2023-04-03T00:01:05.234Z,99166.59
2023-04-03T00:03:33.281Z,99161.88
2023-04-03T00:06:02.633Z,99160.56
2023-04-03T00:08:31.963Z,99153.34
2023-04-03T00:10:59.940Z,99155.13
2023-04-03T00:13:27.888Z,99155.75
2023-04-03T00:15:55.848Z,99149.09
2023-04-03T00:18:23.809Z,99153.16
2023-04-03T00:20:51.772Z,99145.06
2023-04-03T00:23:21.136Z,99138.22
2023-04-03T00:25:49.060Z,99133.59
2023-04-03T00:28:17.021Z,99130.28
2023-04-03T00:30:44.953Z,99133.97
2023-04-03T00:33:13.984Z,99122.53
2023-04-03T00:35:42.084Z,99134.16
2023-04-03T00:38:10.106Z,99129.31
2023-04-03T00:40:40.314Z,99138.38
2023-04-03T00:43:13.017Z,99135.88
2023-04-03T00:45:41.497Z,99134.66
2023-04-03T00:48:11.104Z,99135.47
2023-04-03T00:50:40.087Z,99127.16
2023-04-03T00:53:08.455Z,99124.22
2023-04-03T00:55:36.513Z,99133.66
2023-04-03T00:58:06.060Z,99148.63
2023-04-03T01:00:34.034Z,99143.00
2023-04-03T01:03:02.353Z,99137.63
2023-04-03T01:05:30.455Z,99144.75
2023-04-03T01:07:58.417Z,99139.03
2023-04-03T01:10:26.990Z,99139.56
2023-04-03T01:12:54.959Z,99141.63
2023-04-03T01:15:25.261Z,99133.47
2023-04-03T01:17:53.629Z,99142.91
2023-04-03T01:21:07.969Z,99149.38
2023-04-03T01:23:42.928Z,99151.41
2023-04-03T01:26:12.733Z,99143.28
2023-04-03T01:28:40.701Z,99151.50
2023-04-03T01:31:15.968Z,99151.03
2023-04-03T01:33:45.308Z,99154.91
2023-04-03T01:36:19.839Z,99163.50
2023-04-03T01:38:47.766Z,99156.84
2023-04-03T01:41:16.596Z,99160.09
2023-04-03T01:43:44.629Z,99162.28
2023-04-03T01:46:12.625Z,99169.47
2023-04-03T01:48:40.733Z,99166.19
2023-04-03T01:51:10.036Z,99167.72
2023-04-03T01:53:38.036Z,99168.56
2023-04-03T01:56:06.431Z,99169.38
2023-04-03T01:58:34.400Z,99163.56
2023-04-03T02:01:02.697Z,99168.28
2023-04-03T02:03:30.732Z,99177.31
2023-04-03T02:05:58.677Z,99178.69
2023-04-03T02:08:28.020Z,99175.69
2023-04-03T02:10:55.936Z,99182.72
2023-04-03T02:13:23.880Z,99179.75
2023-04-03T02:15:51.791Z,99181.41
2023-04-03T02:18:19.759Z,99177.72
2023-04-03T02:20:48.708Z,99184.25
2023-04-03T02:23:16.657Z,99175.56
2023-04-03T02:25:46.294Z,99178.06
2023-04-03T02:28:14.275Z,99175.78
2023-04-03T02:30:42.233Z,99175.13
2023-04-03T02:33:10.198Z,99164.41
2023-04-03T02:35:38.206Z,99176.78
2023-04-03T02:38:06.161Z,99170.09
2023-04-03T02:40:34.177Z,99170.66
2023-04-03T02:43:03.827Z,99163.50
2023-04-03T02:45:31.751Z,99168.22
2023-04-03T02:47:59.698Z,99166.00
2023-04-03T02:50:27.686Z,99166.66
2023-04-03T02:52:56.253Z,99167.50
2023-04-03T02:55:24.229Z,99176.72
2023-04-03T02:57:52.202Z,99135.91
2023-04-03T03:00:22.533Z,99176.06
2023-04-03T03:02:51.121Z,99185.94
2023-04-03T03:05:19.388Z,99191.66
2023-04-03T03:07:47.437Z,99187.84
2023-04-03T03:10:15.679Z,99185.69
2023-04-03T03:12:43.601Z,99182.03
2023-04-03T03:15:12.435Z,99189.03
2023-04-03T03:17:41.905Z,99181.66
2023-04-03T03:20:10.688Z,99194.41
2023-04-03T03:22:38.669Z,99182.91
2023-04-03T03:25:07.231Z,99185.59
2023-04-03T03:27:35.737Z,99183.44
2023-04-03T03:30:03.739Z,99173.06
2023-04-03T03:32:31.733Z,99180.63
2023-04-03T03:35:01.169Z,99181.16
2023-04-03T03:37:29.175Z,99185.56
2023-04-03T03:39:57.137Z,99182.59
2023-04-03T03:42:25.216Z,99177.56
2023-04-03T03:44:53.168Z,99186.28
2023-04-03T03:47:21.326Z,99176.97
2023-04-03T03:49:49.261Z,99178.78
2023-04-03T03:52:18.631Z,99176.28
2023-04-03T03:54:46.579Z,99172.63
2023-04-03T03:57:14.648Z,99165.75
2023-04-03T03:59:42.942Z,99161.25
2023-04-03T04:02:11.026Z,99157.41
2023-04-03T04:04:39.050Z,99161.03
2023-04-03T04:07:07.018Z,99159.84
2023-04-03T04:09:36.344Z,99169.22
2023-04-03T04:12:04.443Z,99164.16
2023-04-03T04:14:32.406Z,99161.75
2023-04-03T04:17:00.327Z,99172.13
2023-04-03T04:19:28.305Z,99166.06
2023-04-03T04:21:56.299Z,99173.03
2023-04-03T04:24:24.680Z,99168.81
2023-04-03T04:26:54.070Z,99178.63
2023-04-03T04:29:22.030Z,99167.00
2023-04-03T04:31:49.999Z,99166.78
2023-04-03T04:34:17.930Z,99180.75
2023-04-03T04:36:45.968Z,99178.34
2023-04-03T04:39:14.044Z,99179.00
2023-04-03T04:41:41.999Z,99171.47
2023-04-03T04:44:11.576Z,99180.06
2023-04-03T04:46:39.632Z,99170.81
2023-04-03T04:49:07.760Z,99179.53
2023-04-03T04:51:48.257Z,99175.47
2023-04-03T04:54:19.479Z,99184.53
2023-04-03T04:56:47.436Z,99188.03
2023-04-03T04:59:16.772Z,99190.97
2023-04-03T05:01:44.809Z,99197.56
2023-04-03T05:04:13.789Z,99189.66
2023-04-03T05:06:42.205Z,99194.03
2023-04-03T05:09:10.999Z,99199.59
2023-04-03T05:11:38.987Z,99197.44
2023-04-03T05:14:07.674Z,99200.84
2023-04-03T05:16:37.297Z,99214.16
2023-04-03T05:19:05.276Z,99214.44
2023-04-03T05:21:33.620Z,99221.75
2023-04-03T05:24:03.698Z,99220.38
2023-04-03T05:26:31.782Z,99217.19
2023-04-03T05:28:59.803Z,99215.88
2023-04-03T05:31:30.363Z,99224.59
2023-04-03T05:33:59.833Z,99224.59
2023-04-03T05:36:28.077Z,99225.91
2023-04-03T05:38:57.362Z,99231.81
2023-04-03T05:41:25.930Z,99226.19
2023-04-03T05:43:53.836Z,99233.16
2023-04-03T05:46:22.483Z,99234.50
2023-04-03T05:48:50.990Z,99192.97
2023-04-03T05:51:20.888Z,99235.81
2023-04-03T05:53:48.809Z,99232.38
2023-04-03T05:56:16.740Z,99238.72
2023-04-03T05:58:44.720Z,99240.44
2023-04-03T06:01:12.778Z,99251.28
2023-04-03T06:03:41.803Z,99249.00
2023-04-03T06:06:10.114Z,99250.09
2023-04-03T06:08:39.498Z,99251.31
2023-04-03T06:11:09.696Z,99245.88
2023-04-03T06:13:38.315Z,99244.22
2023-04-03T06:16:07.154Z,99231.44
2023-04-03T06:18:35.110Z,99239.03
2023-04-03T06:21:03.900Z,99237.59
2023-04-03T06:23:31.878Z,99232.53
2023-04-03T06:26:01.580Z,99238.28
2023-04-03T06:28:29.562Z,99239.25
2023-04-03T06:30:57.597Z,99240.19
2023-04-03T06:33:25.571Z,99241.97
2023-04-03T06:35:58.364Z,99258.28
2023-04-03T06:38:26.512Z,99260.53
2023-04-03T06:40:55.030Z,99257.94
2023-04-03T06:43:24.649Z,99263.13
2023-04-03T06:45:52.716Z,99268.78
2023-04-03T06:48:20.797Z,99268.53
2023-04-03T06:50:48.729Z,99272.28
2023-04-03T06:53:16.840Z,99264.44
2023-04-03T06:55:44.777Z,99266.09
2023-04-03T06:58:12.782Z,99267.88
2023-04-03T07:00:42.161Z,99275.47
2023-04-03T07:03:10.147Z,99279.59
2023-04-03T07:05:38.375Z,99277.94
2023-04-03T07:08:06.683Z,99280.28
2023-04-03T07:10:34.602Z,99285.50
2023-04-03T07:13:02.839Z,99282.03
2023-04-03T07:15:30.886Z,99284.09
2023-04-03T07:18:00.311Z,99289.81
2023-04-03T07:20:28.369Z,99301.22
2023-04-03T07:22:56.316Z,99300.66
2023-04-03T07:25:24.295Z,99302.13
2023-04-03T07:27:52.228Z,99297.50
2023-04-03T07:30:20.399Z,99294.19
2023-04-03T07:32:48.402Z,99288.56
2023-04-03T07:35:18.438Z,99294.84
2023-04-03T07:37:47.282Z,99287.50
2023-04-03T07:40:15.722Z,99293.94
2023-04-03T07:42:43.695Z,99294.38
2023-04-03T07:45:12.630Z,99283.06
2023-04-03T07:47:40.564Z,99284.47
2023-04-03T07:50:10.031Z,99288.44
2023-04-03T07:52:39.345Z,99288.34
2023-04-03T07:55:08.019Z,99282.94
2023-04-03T07:57:36.215Z,99286.38
2023-04-03T08:00:05.742Z,99291.88
2023-04-03T08:02:34.018Z,99301.69
2023-04-03T08:05:02.167Z,99297.31
2023-04-03T08:07:30.379Z,99292.31
2023-04-03T08:09:59.769Z,99292.72
2023-04-03T08:12:29.574Z,99283.47
2023-04-03T08:14:57.798Z,99277.84
2023-04-03T08:17:27.334Z,99283.31
2023-04-03T08:19:55.492Z,99274.91
2023-04-03T08:22:23.404Z,99277.16
2023-04-03T08:24:58.614Z,99279.75
2023-04-03T08:27:29.572Z,99276.00
2023-04-03T08:29:58.010Z,99276.38
2023-04-03T08:32:26.710Z,99262.00
2023-04-03T08:34:54.746Z,99260.94
2023-04-03T08:37:22.718Z,99251.03
2023-04-03T08:39:51.102Z,99244.59
2023-04-03T08:42:22.609Z,99239.09
2023-04-03T08:44:54.831Z,99244.00
2023-04-03T08:47:26.322Z,99234.72
2023-04-03T08:49:55.500Z,99236.00
2023-04-03T08:52:26.794Z,99235.34
2023-04-03T08:54:56.308Z,99232.31
2023-04-03T08:57:30.551Z,99223.47
2023-04-03T09:00:03.134Z,99238.31
2023-04-03T09:02:33.639Z,99235.53
2023-04-03T09:05:01.637Z,99240.31
2023-04-03T09:07:35.493Z,99243.97
2023-04-03T09:10:04.188Z,99239.03
2023-04-03T09:12:36.169Z,99243.69
2023-04-03T09:15:12.240Z,99235.41
2023-04-03T09:17:44.603Z,99235.16
2023-04-03T09:20:20.945Z,99236.69
2023-04-03T09:22:52.266Z,99224.00
2023-04-03T09:25:22.452Z,99236.56
2023-04-03T09:27:52.261Z,99231.19
2023-04-03T09:30:22.614Z,99227.50
2023-04-03T09:32:51.976Z,99230.13
2023-04-03T09:35:27.365Z,99228.13
2023-04-03T09:38:01.276Z,99233.09
2023-04-03T09:40:37.347Z,99219.50
2023-04-03T09:43:24.339Z,99214.13
2023-04-03T09:45:53.944Z,99210.16
2023-04-03T09:48:22.537Z,99212.28
2023-04-03T09:51:00.173Z,99219.78
2023-04-03T09:53:33.572Z,99212.75
2023-04-03T09:56:01.654Z,99209.22
2023-04-03T09:58:42.805Z,99208.66
2023-04-03T10:01:26.169Z,99221.56
2023-04-03T10:04:09.074Z,99209.78
2023-04-03T10:06:37.914Z,99215.81
2023-04-03T10:09:22.569Z,99215.25
2023-04-03T10:12:01.119Z,99216.88
2023-04-03T10:14:29.307Z,99213.63
2023-04-03T10:17:01.919Z,99230.63
2023-04-03T10:19:36.720Z,99187.53
2023-04-03T10:22:06.629Z,99203.44
2023-04-03T10:24:38.698Z,99196.88
2023-04-03T10:27:08.811Z,99195.75
2023-04-03T10:29:40.726Z,99183.47
2023-04-03T10:32:20.289Z,99193.28
2023-04-03T10:35:02.358Z,99186.47
2023-04-03T10:37:37.722Z,99191.38
2023-04-03T10:40:22.870Z,99192.25
2023-04-03T10:42:52.704Z,99187.25
2023-04-03T10:45:23.282Z,99177.78
2023-04-03T10:47:58.990Z,99177.47
2023-04-03T10:50:34.167Z,99177.38
2023-04-03T10:53:07.078Z,99153.56
2023-04-03T10:55:38.347Z,99151.91
2023-04-03T10:58:07.065Z,99161.44
2023-04-03T11:00:39.398Z,99156.56
2023-04-03T11:03:11.395Z,99163.31
2023-04-03T11:05:41.808Z,99153.66
2023-04-03T11:08:13.158Z,99148.53
2023-04-03T11:10:43.418Z,99138.16
2023-04-03T11:13:14.484Z,99128.13
2023-04-03T11:15:42.450Z,99126.53
2023-04-03T11:18:13.391Z,99121.28
2023-04-03T11:20:41.364Z,99125.63
2023-04-03T11:23:15.215Z,99121.31
2023-04-03T11:25:45.567Z,99083.03
2023-04-03T11:28:14.683Z,99102.13
2023-04-03T11:30:46.750Z,99106.91
2023-04-03T11:33:28.126Z,99103.47
2023-04-03T11:35:58.167Z,99103.16
2023-04-03T11:38:27.570Z,99088.16
2023-04-03T11:40:56.265Z,99108.50
2023-04-03T11:43:26.897Z,99110.66
2023-04-03T11:46:00.226Z,99105.63
2023-04-03T11:48:49.826Z,99113.56
2023-04-03T11:51:43.423Z,99106.97
2023-04-03T11:54:53.728Z,99100.22
2023-04-03T11:57:48.020Z,99101.56
2023-04-03T12:00:53.787Z,99107.50
2023-04-03T12:04:03.396Z,99107.88
2023-04-03T12:07:21.970Z,99098.84
2023-04-03T12:10:30.928Z,99101.88
2023-04-03T12:13:03.494Z,99101.72
2023-04-03T12:15:55.322Z,99101.50
2023-04-03T12:18:44.812Z,99103.53
2023-04-03T12:21:13.488Z,99097.63
2023-04-03T12:24:01.504Z,99100.53
2023-04-03T12:26:42.122Z,99098.16
2023-04-03T12:29:18.458Z,99090.63
2023-04-03T12:31:50.508Z,99062.91
2023-04-03T12:34:28.007Z,99074.84
2023-04-03T12:37:01.716Z,99081.59
2023-04-03T12:39:58.015Z,99085.66
2023-04-03T12:42:35.198Z,99080.59
2023-04-03T12:45:04.897Z,99077.03
2023-04-03T12:47:37.131Z,99079.81
2023-04-03T12:50:05.792Z,99086.63
2023-04-03T12:52:37.566Z,99085.34
2023-04-03T12:55:06.728Z,99087.84
2023-04-03T12:57:36.387Z,99084.19
2023-04-03T13:00:39.974Z,99085.03
2023-04-03T13:03:08.476Z,99056.09
2023-04-03T13:05:37.427Z,99085.06
2023-04-03T13:08:06.780Z,99084.47
2023-04-03T13:10:34.802Z,99084.81
2023-04-03T13:13:10.918Z,99083.22
2023-04-03T13:15:43.615Z,99072.38
2023-04-03T13:18:24.376Z,99072.06
2023-04-03T13:20:52.339Z,99066.63
2023-04-03T13:23:21.644Z,99078.44
2023-04-03T13:25:49.761Z,99071.16
2023-04-03T13:28:21.542Z,99066.63
2023-04-03T13:31:04.445Z,99051.28
2023-04-03T13:33:33.900Z,99064.28
2023-04-03T13:36:04.759Z,99055.03
2023-04-03T13:38:34.769Z,99062.00
2023-04-03T13:41:05.435Z,99054.97
2023-04-03T13:43:35.839Z,99059.28
2023-04-03T13:46:07.568Z,99060.66
2023-04-03T13:48:40.490Z,99045.53
2023-04-03T13:51:18.047Z,99054.13
2023-04-03T13:53:46.983Z,99054.56
2023-04-03T13:56:21.742Z,99058.19
2023-04-03T13:58:59.590Z,99054.25
2023-04-03T14:01:27.744Z,99050.50
2023-04-03T14:03:57.479Z,99051.41
2023-04-03T14:06:25.722Z,99054.56
2023-04-03T14:08:53.820Z,99051.84
2023-04-03T14:11:23.414Z,99040.72
2023-04-03T14:13:51.770Z,99049.16
2023-04-03T14:16:22.884Z,99051.84
2023-04-03T14:18:52.390Z,99059.38
2023-04-03T14:21:20.921Z,99053.34
2023-04-03T14:23:48.953Z,99049.00
2023-04-03T14:26:18.757Z,99054.94
2023-04-03T14:28:47.498Z,99056.56
2023-04-03T14:31:15.928Z,99060.41
2023-04-03T14:33:45.736Z,99056.50
2023-04-03T14:36:15.217Z,99062.19
2023-04-03T14:38:43.592Z,99063.81
2023-04-03T14:41:16.669Z,99069.63
2023-04-03T14:43:45.769Z,99074.72
2023-04-03T14:46:15.280Z,99069.44
2023-04-03T14:48:43.481Z,99066.53
2023-04-03T14:51:14.338Z,99067.03
2023-04-03T14:53:43.027Z,99068.53
2023-04-03T14:56:14.849Z,99069.66
2023-04-03T14:58:42.818Z,99066.47
2023-04-03T15:01:12.875Z,99072.34
2023-04-03T15:03:41.033Z,99072.00
2023-04-03T15:06:11.119Z,99072.44
2023-04-03T15:08:42.117Z,99076.00
2023-04-03T15:11:10.599Z,99078.69
2023-04-03T15:13:38.636Z,99069.75
2023-04-03T15:16:06.820Z,99072.81
2023-04-03T15:18:38.646Z,99072.63
2023-04-03T15:21:06.671Z,99072.19
2023-04-03T15:23:34.668Z,99074.50
2023-04-03T15:26:04.070Z,99066.59
2023-04-03T15:28:33.232Z,99072.50
2023-04-03T15:31:01.226Z,99076.69
2023-04-03T15:33:29.824Z,99074.16
2023-04-03T15:36:06.596Z,99071.47
2023-04-03T15:38:35.487Z,99073.56
2023-04-03T15:41:04.876Z,99064.66
2023-04-03T15:43:34.762Z,99065.06
2023-04-03T15:46:02.775Z,99063.00
2023-04-03T15:48:30.867Z,99066.13
2023-04-03T15:50:59.356Z,99061.16
2023-04-03T15:53:27.446Z,99059.28
2023-04-03T15:55:55.422Z,99068.44
2023-04-03T15:58:24.866Z,99060.97
2023-04-03T16:00:52.881Z,99061.38
2023-04-03T16:03:21.773Z,99049.38
2023-04-03T16:05:50.275Z,99032.00
2023-04-03T16:08:18.860Z,99041.91
2023-04-03T16:10:47.985Z,99044.84
2023-04-03T16:13:16.205Z,99045.50
2023-04-03T16:15:45.592Z,99034.72
2023-04-03T16:18:15.005Z,99030.31
2023-04-03T16:20:44.724Z,99029.53
2023-04-03T16:23:12.736Z,99022.88
2023-04-03T16:25:40.934Z,99028.88
2023-04-03T16:28:09.176Z,99026.22
2023-04-03T16:30:37.146Z,99017.88
2023-04-03T16:33:06.591Z,99017.03
2023-04-03T16:35:34.693Z,99008.31
2023-04-03T16:38:02.680Z,99011.25
2023-04-03T16:40:30.664Z,99016.22
2023-04-03T16:42:58.664Z,99014.56
2023-04-03T16:45:26.634Z,99013.09
2023-04-03T16:47:54.706Z,99008.75
2023-04-03T16:50:24.165Z,99012.91
2023-04-03T16:52:52.153Z,99013.50
2023-04-03T16:55:21.666Z,99023.88
2023-04-03T16:57:49.640Z,99032.00
2023-04-03T17:00:18.338Z,99034.06
2023-04-03T17:02:46.460Z,99025.97
2023-04-03T17:05:14.506Z,99025.78
2023-04-03T17:07:43.963Z,99018.53
2023-04-03T17:10:12.053Z,99012.53
2023-04-03T17:12:40.047Z,99007.56
2023-04-03T17:15:08.976Z,98998.69
2023-04-03T17:17:37.000Z,98995.97
2023-04-03T17:20:05.515Z,98996.81
2023-04-03T17:22:33.776Z,98982.72
2023-04-03T17:25:03.199Z,98978.16
2023-04-03T17:27:31.265Z,98980.66
2023-04-03T17:29:59.875Z,98966.56
2023-04-03T17:32:27.946Z,98965.56
2023-04-03T17:34:56.162Z,98949.16
2023-04-03T17:37:24.161Z,98945.44
2023-04-03T17:39:52.141Z,98941.69
2023-04-03T17:42:21.541Z,98940.03
2023-04-03T17:44:49.541Z,98950.44
2023-04-03T17:47:17.520Z,98958.34
2023-04-03T17:49:45.469Z,98969.13
2023-04-03T17:52:13.424Z,98978.47
2023-04-03T17:54:41.504Z,98990.28
2023-04-03T17:57:09.509Z,99007.72
2023-04-03T17:59:38.886Z,99020.97
2023-04-03T18:02:06.841Z,99018.50
2023-04-03T18:04:34.837Z,99009.38
2023-04-03T18:07:02.821Z,99007.72
2023-04-03T18:09:32.183Z,98988.22
2023-04-03T18:12:00.284Z,98973.72
2023-04-03T18:14:28.370Z,98964.41
2023-04-03T18:16:58.857Z,98960.47
2023-04-03T18:19:28.425Z,98950.91
2023-04-03T18:21:58.395Z,98925.03
2023-04-03T18:24:26.454Z,98948.25
2023-04-03T18:26:56.832Z,98951.53
2023-04-03T18:29:24.831Z,98945.56
2023-04-03T18:31:53.686Z,98927.31
2023-04-03T18:34:23.126Z,98927.72
2023-04-03T18:36:52.424Z,98918.63
2023-04-03T18:39:21.095Z,98917.16
2023-04-03T18:41:49.691Z,98914.06
2023-04-03T18:44:19.558Z,98914.88
2023-04-03T18:46:47.574Z,98915.09
2023-04-03T18:49:16.717Z,98909.50
2023-04-03T18:51:46.444Z,98911.97
2023-04-03T18:54:14.471Z,98899.97
2023-04-03T18:56:42.473Z,98892.75
2023-04-03T18:59:10.526Z,98900.38
2023-04-03T19:01:38.672Z,98905.31
2023-04-03T19:04:06.693Z,98901.59
2023-04-03T19:06:34.690Z,98874.28
2023-04-03T19:09:04.984Z,98874.28
2023-04-03T19:11:33.016Z,98887.09
2023-04-03T19:14:10.420Z,98877.56
2023-04-03T19:16:43.708Z,98867.44
2023-04-03T19:19:11.777Z,98866.00
2023-04-03T19:21:41.469Z,98855.44
2023-04-03T19:24:11.267Z,98847.38
2023-04-03T19:26:39.294Z,98846.97
2023-04-03T19:29:07.245Z,98846.94
2023-04-03T19:31:36.836Z,98853.59
2023-04-03T19:34:04.926Z,98851.09
2023-04-03T19:36:33.023Z,98844.69
2023-04-03T19:39:00.991Z,98841.56
2023-04-03T19:41:31.640Z,98842.00
2023-04-03T19:43:59.627Z,98838.69
2023-04-03T19:46:28.165Z,98841.38
2023-04-03T19:48:56.161Z,98833.13
2023-04-03T19:51:24.147Z,98814.50
2023-04-03T19:53:52.092Z,98804.38
2023-04-03T19:56:21.298Z,98812.44
2023-04-03T19:58:54.149Z,98820.47
2023-04-03T20:01:22.917Z,98817.59
2023-04-03T20:03:50.915Z,98801.84
2023-04-03T20:06:18.906Z,98813.88
2023-04-03T20:08:46.833Z,98828.75
2023-04-03T20:11:14.780Z,98826.50
2023-04-03T20:13:42.730Z,98853.38
2023-04-03T20:16:12.463Z,98853.59
2023-04-03T20:18:42.419Z,98833.75
2023-04-03T20:21:10.841Z,98827.94
2023-04-03T20:23:38.895Z,98810.16
2023-04-03T20:26:12.027Z,98835.78
2023-04-03T20:28:43.529Z,98845.94
2023-04-03T20:31:14.215Z,98862.25
2023-04-03T20:33:42.851Z,98838.28
2023-04-03T20:36:10.866Z,98825.25
2023-04-03T20:38:38.826Z,98795.88
2023-04-03T20:41:06.798Z,98783.88
2023-04-03T20:43:35.345Z,98785.50
2023-04-03T20:46:04.451Z,98777.03
2023-04-03T20:48:33.774Z,98763.81
2023-04-03T20:51:09.682Z,98762.53
2023-04-03T20:53:37.702Z,98773.31
2023-04-03T20:56:09.040Z,98764.22
2023-04-03T20:58:39.007Z,98755.13
2023-04-03T21:01:14.577Z,98752.00
2023-04-03T21:03:43.969Z,98740.63
2023-04-03T21:06:49.736Z,98728.63
2023-04-03T21:09:55.785Z,98748.06
2023-04-03T21:13:01.450Z,98739.19
2023-04-03T21:15:47.375Z,98743.94
2023-04-03T21:18:40.414Z,98723.88
2023-04-03T21:21:08.396Z,98725.13
2023-04-03T21:23:36.340Z,98715.81
2023-04-03T21:26:04.261Z,98712.31
2023-04-03T21:28:32.632Z,98731.53
2023-04-03T21:31:00.585Z,98716.22
2023-04-03T21:33:28.555Z,98720.38
2023-04-03T21:36:00.012Z,98718.72
2023-04-03T21:38:28.257Z,98722.44
2023-04-03T21:40:57.773Z,98720.78
2023-04-03T21:43:25.788Z,98715.41
2023-04-03T21:45:54.719Z,98710.25
2023-04-03T21:48:23.353Z,98721.59
2023-04-03T21:50:52.584Z,98692.66
2023-04-03T21:53:22.604Z,98724.72
2023-04-03T21:55:57.367Z,98709.59
2023-04-03T21:58:30.601Z,98710.81
2023-04-03T22:00:58.862Z,98711.59
2023-04-03T22:03:27.319Z,98718.66
2023-04-03T22:05:55.422Z,98738.91
2023-04-03T22:08:24.807Z,98711.13
2023-04-03T22:10:52.978Z,98714.91
2023-04-03T22:13:20.948Z,98719.66
2023-04-03T22:15:48.937Z,98718.63
2023-04-03T22:18:16.863Z,98729.38
2023-04-03T22:20:44.889Z,98725.66
2023-04-03T22:23:12.847Z,98717.78
2023-04-03T22:25:42.143Z,98711.59
2023-04-03T22:28:10.064Z,98726.91
2023-04-03T22:30:38.711Z,98721.53
2023-04-03T22:33:08.058Z,98720.44
2023-04-03T22:35:36.435Z,98714.91
2023-04-03T22:38:04.411Z,98678.25
2023-04-03T22:40:33.686Z,98680.31
2023-04-03T22:43:03.029Z,98681.19
2023-04-03T22:45:30.934Z,98688.66
2023-04-03T22:47:59.007Z,98679.78
2023-04-03T22:50:27.051Z,98671.88
2023-04-03T22:52:54.988Z,98694.25
2023-04-03T22:55:24.533Z,98694.44
2023-04-03T22:57:52.480Z,98679.28
2023-04-03T23:00:21.868Z,98681.75
2023-04-03T23:02:49.801Z,98691.72
2023-04-03T23:05:17.834Z,98671.00
2023-04-03T23:07:45.849Z,98662.28
2023-04-03T23:10:13.783Z,98661.44
2023-04-03T23:12:41.814Z,98680.50
2023-04-03T23:15:10.323Z,98690.88
2023-04-03T23:17:39.713Z,98693.38
2023-04-03T23:20:08.615Z,98708.25
2023-04-03T23:22:36.537Z,98699.97
2023-04-03T23:25:04.603Z,98728.53
2023-04-03T23:27:32.524Z,98735.59
2023-04-03T23:30:00.608Z,98708.72
2023-04-03T23:32:28.566Z,98700.69
2023-04-03T23:34:58.273Z,98717.25
2023-04-03T23:37:26.238Z,98722.41
2023-04-03T23:39:54.142Z,98730.31
2023-04-03T23:42:22.092Z,98716.63
2023-04-03T23:44:50.047Z,98727.00
2023-04-03T23:47:18.018Z,98730.50
2023-04-03T23:49:46.028Z,98726.19
2023-04-03T23:52:15.328Z,98738.13
2023-04-03T23:54:43.309Z,98739.78
2023-04-03T23:57:11.229Z,98719.94
2023-04-03T23:59:39.151Z,98722.44
